sensor_id;sensor_type;location;lat;lon;timestamp;pressure;altitude;pressure_sealevel;temperature;humidity
13952;BME280;39535;52.192;9.886;2023-05-03T00:00:28;101837.63;;;5.21;84.26
13952;BME280;39535;52.192;9.886;2023-05-03T00:02:55;101834.56;;;5.37;84.89
13952;BME280;39535;52.192;9.886;2023-05-03T00:05:22;101827.91;;;5.47;85.09
13952;BME280;39535;52.192;9.886;2023-05-03T00:07:48;101826.47;;;5.58;85.19
13952;BME280;39535;52.192;9.886;2023-05-03T00:10:15;101826.31;;;5.52;85.39
13952;BME280;39535;52.192;9.886;2023-05-03T00:12:42;101819.56;;;5.58;84.79
13952;BME280;39535;52.192;9.886;2023-05-03T00:15:09;101835.69;;;5.47;84.22
13952;BME280;39535;52.192;9.886;2023-05-03T00:17:37;101839.75;;;5.37;84.63
13952;BME280;39535;52.192;9.886;2023-05-03T00:20:05;101826.78;;;5.35;85.77
13952;BME280;39535;52.192;9.886;2023-05-03T00:22:32;101817.53;;;5.45;85.31
13952;BME280;39535;52.192;9.886;2023-05-03T00:24:59;101827.59;;;5.34;86.11
13952;BME280;39535;52.192;9.886;2023-05-03T00:27:25;101821.81;;;5.45;85.52
13952;BME280;39535;52.192;9.886;2023-05-03T00:29:52;101818.50;;;5.50;85.21
13952;BME280;39535;52.192;9.886;2023-05-03T00:32:19;101839.16;;;5.47;84.64
13952;BME280;39535;52.192;9.886;2023-05-03T00:34:51;101841.00;;;5.53;84.17
13952;BME280;39535;52.192;9.886;2023-05-03T00:37:17;101848.09;;;5.60;83.94
13952;BME280;39535;52.192;9.886;2023-05-03T00:39:44;101855.13;;;5.66;83.74
13952;BME280;39535;52.192;9.886;2023-05-03T00:42:10;101862.97;;;5.69;83.51
13952;BME280;39535;52.192;9.886;2023-05-03T00:44:37;101885.63;;;5.43;83.59
13952;BME280;39535;52.192;9.886;2023-05-03T00:47:03;101867.34;;;5.36;84.88
13952;BME280;39535;52.192;9.886;2023-05-03T00:49:31;101855.88;;;5.25;85.47
13952;BME280;39535;52.192;9.886;2023-05-03T00:52:00;101858.25;;;5.17;85.46
13952;BME280;39535;52.192;9.886;2023-05-03T00:54:26;101838.47;;;5.20;85.72
13952;BME280;39535;52.192;9.886;2023-05-03T00:56:54;101833.50;;;5.29;85.65
13952;BME280;39535;52.192;9.886;2023-05-03T00:59:21;101827.31;;;5.22;85.93
13952;BME280;39535;52.192;9.886;2023-05-03T01:01:49;101835.13;;;5.24;85.66
13952;BME280;39535;52.192;9.886;2023-05-03T01:04:16;101835.28;;;5.30;85.45
13952;BME280;39535;52.192;9.886;2023-05-03T01:06:45;101835.47;;;5.37;85.18
13952;BME280;39535;52.192;9.886;2023-05-03T01:09:20;101846.75;;;5.40;84.77
13952;BME280;39535;52.192;9.886;2023-05-03T01:11:54;101839.94;;;5.45;84.60
13952;BME280;39535;52.192;9.886;2023-05-03T01:14:31;101856.47;;;5.50;84.56
13952;BME280;39535;52.192;9.886;2023-05-03T01:17:05;101861.63;;;5.48;84.27
13952;BME280;39535;52.192;9.886;2023-05-03T01:19:35;101871.16;;;5.51;83.77
13952;BME280;39535;52.192;9.886;2023-05-03T01:22:09;101873.69;;;5.48;83.95
13952;BME280;39535;52.192;9.886;2023-05-03T01:24:44;101883.97;;;5.45;83.83
13952;BME280;39535;52.192;9.886;2023-05-03T01:27:13;101890.88;;;5.44;83.58
13952;BME280;39535;52.192;9.886;2023-05-03T01:29:40;101884.94;;;5.48;83.85
13952;BME280;39535;52.192;9.886;2023-05-03T01:32:13;101884.38;;;5.27;84.26
13952;BME280;39535;52.192;9.886;2023-05-03T01:34:49;101887.59;;;5.18;85.27
13952;BME280;39535;52.192;9.886;2023-05-03T01:37:17;101874.50;;;5.12;84.92
13952;BME280;39535;52.192;9.886;2023-05-03T01:39:47;101873.44;;;5.04;85.14
13952;BME280;39535;52.192;9.886;2023-05-03T01:42:17;101871.78;;;5.07;85.15
13952;BME280;39535;52.192;9.886;2023-05-03T01:44:46;101854.56;;;5.08;86.25
13952;BME280;39535;52.192;9.886;2023-05-03T01:47:13;101844.34;;;5.14;85.85
13952;BME280;39535;52.192;9.886;2023-05-03T01:49:40;101835.94;;;5.23;85.46
13952;BME280;39535;52.192;9.886;2023-05-03T01:52:06;101845.44;;;5.22;85.72
13952;BME280;39535;52.192;9.886;2023-05-03T01:54:33;101849.88;;;5.28;84.80
13952;BME280;39535;52.192;9.886;2023-05-03T01:56:59;101861.22;;;5.33;84.51
13952;BME280;39535;52.192;9.886;2023-05-03T01:59:28;101873.25;;;5.31;84.36
13952;BME280;39535;52.192;9.886;2023-05-03T02:01:54;101878.22;;;5.23;84.00
13952;BME280;39535;52.192;9.886;2023-05-03T02:04:21;101897.19;;;5.22;84.32
13952;BME280;39535;52.192;9.886;2023-05-03T02:06:47;101910.81;;;5.15;83.61
13952;BME280;39535;52.192;9.886;2023-05-03T02:09:14;101902.75;;;5.04;84.32
13952;BME280;39535;52.192;9.886;2023-05-03T02:11:40;101894.94;;;5.03;84.80
13952;BME280;39535;52.192;9.886;2023-05-03T02:14:08;101885.25;;;4.95;85.61
13952;BME280;39535;52.192;9.886;2023-05-03T02:16:35;101873.44;;;5.05;85.67
13952;BME280;39535;52.192;9.886;2023-05-03T02:19:02;101875.13;;;5.03;85.60
13952;BME280;39535;52.192;9.886;2023-05-03T02:21:28;101871.41;;;4.93;85.44
13952;BME280;39535;52.192;9.886;2023-05-03T02:23:55;101860.13;;;4.90;86.32
13952;BME280;39535;52.192;9.886;2023-05-03T02:26:22;101860.13;;;4.91;86.13
13952;BME280;39535;52.192;9.886;2023-05-03T02:28:48;101854.28;;;4.98;85.85
13952;BME280;39535;52.192;9.886;2023-05-03T02:31:15;101875.28;;;4.77;84.95
13952;BME280;39535;52.192;9.886;2023-05-03T02:33:42;101876.94;;;4.45;85.80
13952;BME280;39535;52.192;9.886;2023-05-03T02:36:09;101862.56;;;4.25;87.19
13952;BME280;39535;52.192;9.886;2023-05-03T02:38:35;101832.66;;;4.33;87.94
13952;BME280;39535;52.192;9.886;2023-05-03T02:41:01;101814.97;;;4.18;88.98
13952;BME280;39535;52.192;9.886;2023-05-03T02:43:28;101799.34;;;4.13;90.24
13952;BME280;39535;52.192;9.886;2023-05-03T02:45:54;101777.22;;;3.93;90.76
13952;BME280;39535;52.192;9.886;2023-05-03T02:48:21;101752.88;;;3.85;92.05
13952;BME280;39535;52.192;9.886;2023-05-03T02:50:48;101736.84;;;3.96;91.98
13952;BME280;39535;52.192;9.886;2023-05-03T02:53:15;101725.63;;;3.96;92.38
13952;BME280;39535;52.192;9.886;2023-05-03T02:55:42;101710.34;;;4.04;92.38
13952;BME280;39535;52.192;9.886;2023-05-03T02:58:08;101698.28;;;4.03;92.61
13952;BME280;39535;52.192;9.886;2023-05-03T03:00:35;101695.59;;;4.00;93.13
13952;BME280;39535;52.192;9.886;2023-05-03T03:03:01;101686.66;;;3.88;93.21
13952;BME280;39535;52.192;9.886;2023-05-03T03:05:28;101692.50;;;3.81;93.36
13952;BME280;39535;52.192;9.886;2023-05-03T03:07:55;101681.00;;;3.71;93.96
13952;BME280;39535;52.192;9.886;2023-05-03T03:10:22;101677.28;;;3.62;94.08
13952;BME280;39535;52.192;9.886;2023-05-03T03:12:48;101670.56;;;3.67;93.73
13952;BME280;39535;52.192;9.886;2023-05-03T03:15:15;101683.31;;;3.62;94.01
13952;BME280;39535;52.192;9.886;2023-05-03T03:17:41;101684.34;;;3.67;93.57
13952;BME280;39535;52.192;9.886;2023-05-03T03:20:08;101693.16;;;3.45;94.15
13952;BME280;39535;52.192;9.886;2023-05-03T03:22:35;101676.41;;;3.32;95.22
13952;BME280;39535;52.192;9.886;2023-05-03T03:25:04;101654.84;;;3.30;96.67
13952;BME280;39535;52.192;9.886;2023-05-03T03:27:30;101638.31;;;3.24;96.58
13952;BME280;39535;52.192;9.886;2023-05-03T03:29:57;101628.13;;;3.28;97.06
13952;BME280;39535;52.192;9.886;2023-05-03T03:32:23;101621.16;;;3.26;97.58
13952;BME280;39535;52.192;9.886;2023-05-03T03:34:50;101630.50;;;3.22;97.43
13952;BME280;39535;52.192;9.886;2023-05-03T03:37:16;101623.78;;;3.27;97.31
13952;BME280;39535;52.192;9.886;2023-05-03T03:39:43;101620.09;;;3.19;97.84
13952;BME280;39535;52.192;9.886;2023-05-03T03:42:11;101605.34;;;3.15;98.45
13952;BME280;39535;52.192;9.886;2023-05-03T03:44:38;101598.41;;;3.12;99.87
13952;BME280;39535;52.192;9.886;2023-05-03T03:47:04;101588.88;;;3.10;100.00
13952;BME280;39535;52.192;9.886;2023-05-03T03:49:31;101588.38;;;3.22;98.75
13952;BME280;39535;52.192;9.886;2023-05-03T03:51:57;101606.06;;;3.09;97.88
13952;BME280;39535;52.192;9.886;2023-05-03T03:54:23;101623.50;;;3.18;98.39
13952;BME280;39535;52.192;9.886;2023-05-03T03:56:50;101630.56;;;3.24;98.11
13952;BME280;39535;52.192;9.886;2023-05-03T03:59:18;101636.81;;;3.32;98.18
13952;BME280;39535;52.192;9.886;2023-05-03T04:01:45;101630.13;;;3.38;98.05
13952;BME280;39535;52.192;9.886;2023-05-03T04:04:11;101629.66;;;3.52;97.67
13952;BME280;39535;52.192;9.886;2023-05-03T04:06:37;101648.59;;;3.51;97.00
13952;BME280;39535;52.192;9.886;2023-05-03T04:09:05;101653.88;;;3.55;97.54
13952;BME280;39535;52.192;9.886;2023-05-03T04:11:31;101654.56;;;3.50;96.98
13952;BME280;39535;52.192;9.886;2023-05-03T04:13:57;101661.56;;;3.54;96.87
13952;BME280;39535;52.192;9.886;2023-05-03T04:16:25;101675.31;;;3.53;96.63
13952;BME280;39535;52.192;9.886;2023-05-03T04:18:51;101674.47;;;3.54;96.91
13952;BME280;39535;52.192;9.886;2023-05-03T04:21:18;101676.38;;;3.60;97.10
13952;BME280;39535;52.192;9.886;2023-05-03T04:23:45;101667.97;;;3.67;97.20
13952;BME280;39535;52.192;9.886;2023-05-03T04:26:11;101668.16;;;3.73;97.58
13952;BME280;39535;52.192;9.886;2023-05-03T04:28:37;101673.03;;;3.64;97.64
13952;BME280;39535;52.192;9.886;2023-05-03T04:31:04;101660.00;;;3.59;97.55
13952;BME280;39535;52.192;9.886;2023-05-03T04:33:32;101662.53;;;3.57;97.89
13952;BME280;39535;52.192;9.886;2023-05-03T04:35:58;101672.41;;;3.71;97.99
13952;BME280;39535;52.192;9.886;2023-05-03T04:38:25;101681.00;;;3.71;96.99
13952;BME280;39535;52.192;9.886;2023-05-03T04:40:51;101692.22;;;3.72;97.14
13952;BME280;39535;52.192;9.886;2023-05-03T04:43:18;101711.13;;;3.71;95.57
13952;BME280;39535;52.192;9.886;2023-05-03T04:45:44;101722.47;;;3.76;95.66
13952;BME280;39535;52.192;9.886;2023-05-03T04:48:11;101741.50;;;3.80;95.25
13952;BME280;39535;52.192;9.886;2023-05-03T04:50:38;101740.13;;;3.91;95.31
13952;BME280;39535;52.192;9.886;2023-05-03T04:53:05;101758.94;;;3.87;93.76
13952;BME280;39535;52.192;9.886;2023-05-03T04:55:31;101777.97;;;3.90;94.00
13952;BME280;39535;52.192;9.886;2023-05-03T04:57:58;101782.44;;;3.96;94.23
13952;BME280;39535;52.192;9.886;2023-05-03T05:00:24;101791.28;;;4.03;92.91
13952;BME280;39535;52.192;9.886;2023-05-03T05:02:51;101815.53;;;4.08;92.95
13952;BME280;39535;52.192;9.886;2023-05-03T05:05:17;101821.56;;;4.08;92.43
13952;BME280;39535;52.192;9.886;2023-05-03T05:07:45;101829.66;;;4.19;92.08
13952;BME280;39535;52.192;9.886;2023-05-03T05:10:12;101844.53;;;4.28;91.21
13952;BME280;39535;52.192;9.886;2023-05-03T05:12:38;101841.84;;;4.23;91.91
13952;BME280;39535;52.192;9.886;2023-05-03T05:15:06;101843.69;;;4.27;91.73
13952;BME280;39535;52.192;9.886;2023-05-03T05:17:33;101851.31;;;4.23;91.29
13952;BME280;39535;52.192;9.886;2023-05-03T05:19:59;101867.97;;;4.34;90.82
13952;BME280;39535;52.192;9.886;2023-05-03T05:22:26;101870.97;;;4.46;90.31
13952;BME280;39535;52.192;9.886;2023-05-03T05:24:53;101895.28;;;4.53;90.02
13952;BME280;39535;52.192;9.886;2023-05-03T05:27:20;101908.16;;;4.51;89.44
13952;BME280;39535;52.192;9.886;2023-05-03T05:29:46;101927.09;;;4.50;89.37
13952;BME280;39535;52.192;9.886;2023-05-03T05:32:13;101918.44;;;4.50;90.12
13952;BME280;39535;52.192;9.886;2023-05-03T05:34:39;101919.06;;;4.41;90.80
13952;BME280;39535;52.192;9.886;2023-05-03T05:37:06;101900.84;;;4.36;91.60
13952;BME280;39535;52.192;9.886;2023-05-03T05:39:32;101881.06;;;4.38;92.87
13952;BME280;39535;52.192;9.886;2023-05-03T05:42:00;101860.56;;;4.45;93.50
13952;BME280;39535;52.192;9.886;2023-05-03T05:44:27;101846.84;;;4.47;94.04
13952;BME280;39535;52.192;9.886;2023-05-03T05:46:53;101849.66;;;4.55;93.48
13952;BME280;39535;52.192;9.886;2023-05-03T05:49:19;101864.59;;;4.65;92.50
13952;BME280;39535;52.192;9.886;2023-05-03T05:51:46;101885.59;;;4.76;91.27
13952;BME280;39535;52.192;9.886;2023-05-03T05:54:12;101883.25;;;4.85;91.67
13952;BME280;39535;52.192;9.886;2023-05-03T05:56:39;101889.28;;;4.84;91.75
13952;BME280;39535;52.192;9.886;2023-05-03T05:59:06;101899.63;;;4.84;90.99
13952;BME280;39535;52.192;9.886;2023-05-03T06:01:33;101910.41;;;5.00;90.96
13952;BME280;39535;52.192;9.886;2023-05-03T06:03:59;101925.25;;;5.07;89.79
13952;BME280;39535;52.192;9.886;2023-05-03T06:06:26;101958.94;;;5.08;88.72
13952;BME280;39535;52.192;9.886;2023-05-03T06:08:52;101960.16;;;5.21;88.99
13952;BME280;39535;52.192;9.886;2023-05-03T06:11:19;101982.75;;;5.27;87.70
13952;BME280;39535;52.192;9.886;2023-05-03T06:13:45;102013.88;;;5.28;87.30
13952;BME280;39535;52.192;9.886;2023-05-03T06:16:13;102010.84;;;5.43;87.41
13952;BME280;39535;52.192;9.886;2023-05-03T06:18:40;102018.22;;;5.61;86.86
13952;BME280;39535;52.192;9.886;2023-05-03T06:21:06;102039.13;;;5.69;85.42
13952;BME280;39535;52.192;9.886;2023-05-03T06:23:34;102059.97;;;5.72;84.64
13952;BME280;39535;52.192;9.886;2023-05-03T06:26:01;102100.59;;;5.73;83.97
13952;BME280;39535;52.192;9.886;2023-05-03T06:28:28;102121.59;;;5.84;83.42
13952;BME280;39535;52.192;9.886;2023-05-03T06:30:54;102146.69;;;5.85;82.88
13952;BME280;39535;52.192;9.886;2023-05-03T06:33:22;102164.56;;;5.75;83.05
13952;BME280;39535;52.192;9.886;2023-05-03T06:35:49;102163.88;;;5.81;83.55
13952;BME280;39535;52.192;9.886;2023-05-03T06:38:16;102173.84;;;5.97;82.90
13952;BME280;39535;52.192;9.886;2023-05-03T06:40:43;102184.38;;;6.04;82.04
13952;BME280;39535;52.192;9.886;2023-05-03T06:43:10;102199.53;;;6.20;80.82
13952;BME280;39535;52.192;9.886;2023-05-03T06:45:37;102229.16;;;6.28;79.85
13952;BME280;39535;52.192;9.886;2023-05-03T06:48:04;102250.09;;;6.36;79.96
13952;BME280;39535;52.192;9.886;2023-05-03T06:50:33;102259.06;;;6.47;80.17
13952;BME280;39535;52.192;9.886;2023-05-03T06:53:00;102257.72;;;6.62;80.01
13952;BME280;39535;52.192;9.886;2023-05-03T06:55:26;102268.19;;;6.65;79.89
13952;BME280;39535;52.192;9.886;2023-05-03T06:57:53;102272.72;;;6.73;79.86
13952;BME280;39535;52.192;9.886;2023-05-03T07:00:20;102282.56;;;6.85;79.22
13952;BME280;39535;52.192;9.886;2023-05-03T07:02:47;102294.88;;;6.92;78.53
13952;BME280;39535;52.192;9.886;2023-05-03T07:05:13;102300.22;;;6.99;78.05
13952;BME280;39535;52.192;9.886;2023-05-03T07:07:41;102335.97;;;7.09;76.23
13952;BME280;39535;52.192;9.886;2023-05-03T07:10:09;102361.09;;;7.10;75.87
13952;BME280;39535;52.192;9.886;2023-05-03T07:12:35;102375.38;;;7.26;76.22
13952;BME280;39535;52.192;9.886;2023-05-03T07:15:01;102397.09;;;7.29;74.90
13952;BME280;39535;52.192;9.886;2023-05-03T07:17:28;102429.22;;;7.31;73.06
13952;BME280;39535;52.192;9.886;2023-05-03T07:19:55;102483.19;;;7.11;71.80
13952;BME280;39535;52.192;9.886;2023-05-03T07:22:22;102497.44;;;7.26;73.84
13952;BME280;39535;52.192;9.886;2023-05-03T07:24:50;102488.09;;;7.32;73.71
13952;BME280;39535;52.192;9.886;2023-05-03T07:27:18;102485.00;;;7.46;72.00
13952;BME280;39535;52.192;9.886;2023-05-03T07:29:45;102507.69;;;7.51;71.59
13952;BME280;39535;52.192;9.886;2023-05-03T07:32:11;102549.44;;;7.58;69.60
13952;BME280;39535;52.192;9.886;2023-05-03T07:34:38;102571.09;;;7.58;68.97
13952;BME280;39535;52.192;9.886;2023-05-03T07:37:04;102595.53;;;7.65;68.83
13952;BME280;39535;52.192;9.886;2023-05-03T07:39:31;102597.47;;;7.72;70.25
13952;BME280;39535;52.192;9.886;2023-05-03T07:41:59;102597.00;;;7.87;67.96
13952;BME280;39535;52.192;9.886;2023-05-03T07:44:26;102622.53;;;8.02;67.50
13952;BME280;39535;52.192;9.886;2023-05-03T07:46:52;102654.94;;;8.13;66.59
13952;BME280;39535;52.192;9.886;2023-05-03T07:49:19;102675.75;;;8.14;66.37
13952;BME280;39535;52.192;9.886;2023-05-03T07:51:45;102709.78;;;8.22;65.94
13952;BME280;39535;52.192;9.886;2023-05-03T07:54:12;102712.56;;;8.28;67.39
13952;BME280;39535;52.192;9.886;2023-05-03T07:56:38;102710.31;;;8.41;65.88
13952;BME280;39535;52.192;9.886;2023-05-03T07:59:06;102733.22;;;8.52;63.25
13952;BME280;39535;52.192;9.886;2023-05-03T08:01:32;102780.41;;;8.65;62.92
13952;BME280;39535;52.192;9.886;2023-05-03T08:03:59;102814.31;;;8.68;61.62
13952;BME280;39535;52.192;9.886;2023-05-03T08:06:25;102823.25;;;8.78;61.20
13952;BME280;39535;52.192;9.886;2023-05-03T08:08:52;102843.09;;;8.72;61.71
13952;BME280;39535;52.192;9.886;2023-05-03T08:11:18;102836.31;;;8.79;61.96
13952;BME280;39535;52.192;9.886;2023-05-03T08:13:45;102849.50;;;8.85;63.42
13952;BME280;39535;52.192;9.886;2023-05-03T08:16:13;102797.81;;;9.01;65.58
13952;BME280;39535;52.192;9.886;2023-05-03T08:18:40;102765.13;;;9.12;62.73
13952;BME280;39535;52.192;9.886;2023-05-03T08:21:07;102805.94;;;9.13;60.04
13952;BME280;39535;52.192;9.886;2023-05-03T08:23:36;102842.38;;;9.10;59.96
13952;BME280;39535;52.192;9.886;2023-05-03T08:26:02;102880.53;;;8.78;58.33
13952;BME280;39535;52.192;9.886;2023-05-03T08:28:31;102909.34;;;8.82;60.22
13952;BME280;39535;52.192;9.886;2023-05-03T08:30:58;102884.38;;;8.90;61.26
13952;BME280;39535;52.192;9.886;2023-05-03T08:33:26;102861.94;;;8.95;60.92
13952;BME280;39535;52.192;9.886;2023-05-03T08:35:52;102865.19;;;8.87;61.69
13952;BME280;39535;52.192;9.886;2023-05-03T08:38:18;102858.38;;;8.92;60.43
13952;BME280;39535;52.192;9.886;2023-05-03T08:40:47;102867.19;;;8.97;60.49
13952;BME280;39535;52.192;9.886;2023-05-03T08:43:19;102874.03;;;8.92;59.38
13952;BME280;39535;52.192;9.886;2023-05-03T08:45:45;102877.63;;;8.97;59.34
13952;BME280;39535;52.192;9.886;2023-05-03T08:48:13;102885.75;;;9.09;59.10
13952;BME280;39535;52.192;9.886;2023-05-03T08:50:41;102893.72;;;9.15;58.74
13952;BME280;39535;52.192;9.886;2023-05-03T08:53:08;102893.16;;;9.26;58.99
13952;BME280;39535;52.192;9.886;2023-05-03T08:55:34;102892.53;;;9.36;58.18
13952;BME280;39535;52.192;9.886;2023-05-03T08:58:02;102909.16;;;9.40;57.91
13952;BME280;39535;52.192;9.886;2023-05-03T09:00:28;102906.66;;;9.44;57.56
13952;BME280;39535;52.192;9.886;2023-05-03T09:02:55;102918.09;;;9.51;57.19
13952;BME280;39535;52.192;9.886;2023-05-03T09:05:31;102931.22;;;9.54;56.70
13952;BME280;39535;52.192;9.886;2023-05-03T09:08:04;102959.75;;;9.48;56.85
13952;BME280;39535;52.192;9.886;2023-05-03T09:10:31;102957.25;;;9.52;56.32
13952;BME280;39535;52.192;9.886;2023-05-03T09:12:58;102959.09;;;9.57;56.31
13952;BME280;39535;52.192;9.886;2023-05-03T09:15:25;102950.59;;;9.64;56.51
13952;BME280;39535;52.192;9.886;2023-05-03T09:18:10;102954.97;;;9.65;55.77
13952;BME280;39535;52.192;9.886;2023-05-03T09:20:37;102967.03;;;9.61;55.50
13952;BME280;39535;52.192;9.886;2023-05-03T09:23:07;102979.72;;;9.47;55.69
13952;BME280;39535;52.192;9.886;2023-05-03T09:25:41;102986.69;;;9.48;56.31
13952;BME280;39535;52.192;9.886;2023-05-03T09:28:07;102975.44;;;9.49;56.73
13952;BME280;39535;52.192;9.886;2023-05-03T09:30:34;102962.44;;;9.51;55.56
13952;BME280;39535;52.192;9.886;2023-05-03T09:33:01;102982.63;;;9.26;55.47
13952;BME280;39535;52.192;9.886;2023-05-03T09:35:28;102968.34;;;9.44;56.86
13952;BME280;39535;52.192;9.886;2023-05-03T09:37:55;102958.13;;;9.53;55.45
13952;BME280;39535;52.192;9.886;2023-05-03T09:40:22;102963.34;;;9.51;54.80
13952;BME280;39535;52.192;9.886;2023-05-03T09:43:08;102979.09;;;9.56;54.34
13952;BME280;39535;52.192;9.886;2023-05-03T09:45:35;102982.78;;;9.64;55.20
13952;BME280;39535;52.192;9.886;2023-05-03T09:48:02;102966.50;;;9.74;55.44
13952;BME280;39535;52.192;9.886;2023-05-03T09:50:30;102959.91;;;9.87;55.45
13952;BME280;39535;52.192;9.886;2023-05-03T09:52:59;102957.56;;;10.00;54.83
13952;BME280;39535;52.192;9.886;2023-05-03T09:55:30;102973.00;;;9.90;53.91
13952;BME280;39535;52.192;9.886;2023-05-03T09:57:58;102981.88;;;9.97;53.83
13952;BME280;39535;52.192;9.886;2023-05-03T10:00:25;102987.28;;;10.06;53.77
13952;BME280;39535;52.192;9.886;2023-05-03T10:02:53;102972.69;;;10.13;55.38
13952;BME280;39535;52.192;9.886;2023-05-03T10:05:23;102953.69;;;10.20;57.67
13952;BME280;39535;52.192;9.886;2023-05-03T10:07:52;102913.31;;;10.41;58.41
13952;BME280;39535;52.192;9.886;2023-05-03T10:10:21;102862.16;;;10.50;58.04
13952;BME280;39535;52.192;9.886;2023-05-03T10:12:49;102855.31;;;10.57;54.77
13952;BME280;39535;52.192;9.886;2023-05-03T10:15:19;102883.13;;;10.55;54.05
13952;BME280;39535;52.192;9.886;2023-05-03T10:17:48;102913.63;;;10.56;55.77
13952;BME280;39535;52.192;9.886;2023-05-03T10:20:23;102903.41;;;10.67;54.34
13952;BME280;39535;52.192;9.886;2023-05-03T10:23:08;102940.75;;;10.63;53.01
13952;BME280;39535;52.192;9.886;2023-05-03T10:25:36;102952.16;;;10.68;52.80
13952;BME280;39535;52.192;9.886;2023-05-03T10:28:05;102972.56;;;10.84;53.29
13952;BME280;39535;52.192;9.886;2023-05-03T10:30:33;102975.38;;;10.95;53.85
13952;BME280;39535;52.192;9.886;2023-05-03T10:33:27;102975.50;;;11.01;51.98
13952;BME280;39535;52.192;9.886;2023-05-03T10:35:55;102999.91;;;11.02;54.29
13952;BME280;39535;52.192;9.886;2023-05-03T10:38:23;102975.53;;;11.03;52.82
13952;BME280;39535;52.192;9.886;2023-05-03T10:40:51;102982.97;;;10.83;51.93
13952;BME280;39535;52.192;9.886;2023-05-03T10:43:42;103002.56;;;11.03;53.16
13952;BME280;39535;52.192;9.886;2023-05-03T10:46:28;102989.47;;;11.03;53.46
13952;BME280;39535;52.192;9.886;2023-05-03T10:49:20;102980.22;;;11.19;54.34
13952;BME280;39535;52.192;9.886;2023-05-03T10:51:47;102950.94;;;11.39;52.55
13952;BME280;39535;52.192;9.886;2023-05-03T10:54:13;102958.06;;;11.46;54.07
13952;BME280;39535;52.192;9.886;2023-05-03T10:56:54;102939.19;;;11.64;52.67
13952;BME280;39535;52.192;9.886;2023-05-03T10:59:23;102950.66;;;11.72;51.73
13952;BME280;39535;52.192;9.886;2023-05-03T11:01:50;102955.19;;;11.82;51.81
13952;BME280;39535;52.192;9.886;2023-05-03T11:04:27;102964.94;;;11.91;51.16
13952;BME280;39535;52.192;9.886;2023-05-03T11:06:55;102975.59;;;12.02;52.59
13952;BME280;39535;52.192;9.886;2023-05-03T11:09:29;102965.41;;;12.20;51.32
13952;BME280;39535;52.192;9.886;2023-05-03T11:11:56;102975.97;;;12.26;50.86
13952;BME280;39535;52.192;9.886;2023-05-03T11:14:24;102983.09;;;12.35;51.83
13952;BME280;39535;52.192;9.886;2023-05-03T11:16:51;102911.44;;;12.30;51.16
13952;BME280;39535;52.192;9.886;2023-05-03T11:19:21;102944.56;;;12.28;51.37
13952;BME280;39535;52.192;9.886;2023-05-03T11:21:48;102940.41;;;12.41;49.75
13952;BME280;39535;52.192;9.886;2023-05-03T11:24:15;102987.84;;;12.61;50.05
13952;BME280;39535;52.192;9.886;2023-05-03T11:26:41;102983.69;;;12.80;48.71
13952;BME280;39535;52.192;9.886;2023-05-03T11:29:08;103002.56;;;13.21;48.16
13952;BME280;39535;52.192;9.886;2023-05-03T11:31:36;103053.63;;;13.48;45.85
13952;BME280;39535;52.192;9.886;2023-05-03T11:34:04;103055.06;;;15.71;43.29
13952;BME280;39535;52.192;9.886;2023-05-03T11:36:30;103108.34;;;17.64;40.36
13952;BME280;39535;52.192;9.886;2023-05-03T11:38:57;103206.38;;;18.69;38.15
13952;BME280;39535;52.192;9.886;2023-05-03T11:41:25;103264.66;;;20.27;35.18
13952;BME280;39535;52.192;9.886;2023-05-03T11:43:51;103367.97;;;21.56;32.04
13952;BME280;39535;52.192;9.886;2023-05-03T11:46:22;103434.09;;;22.66;31.75
13952;BME280;39535;52.192;9.886;2023-05-03T11:48:51;103474.53;;;23.60;31.18
13952;BME280;39535;52.192;9.886;2023-05-03T11:51:20;103503.44;;;24.44;29.47
13952;BME280;39535;52.192;9.886;2023-05-03T11:53:47;103534.97;;;25.24;29.65
13952;BME280;39535;52.192;9.886;2023-05-03T11:56:14;103530.09;;;25.90;28.31
13952;BME280;39535;52.192;9.886;2023-05-03T11:58:50;103547.03;;;26.42;26.98
13952;BME280;39535;52.192;9.886;2023-05-03T12:01:18;103567.44;;;26.46;26.84
13952;BME280;39535;52.192;9.886;2023-05-03T12:03:45;103564.16;;;26.87;26.09
13952;BME280;39535;52.192;9.886;2023-05-03T12:06:15;103568.59;;;26.88;26.47
13952;BME280;39535;52.192;9.886;2023-05-03T12:08:42;103539.72;;;26.94;27.55
13952;BME280;39535;52.192;9.886;2023-05-03T12:11:08;103515.47;;;26.98;27.32
13952;BME280;39535;52.192;9.886;2023-05-03T12:13:37;103482.69;;;26.67;26.98
13952;BME280;39535;52.192;9.886;2023-05-03T12:16:05;103487.63;;;26.54;26.15
13952;BME280;39535;52.192;9.886;2023-05-03T12:18:44;103478.28;;;26.18;27.20
13952;BME280;39535;52.192;9.886;2023-05-03T12:21:11;103464.69;;;25.18;27.55
13952;BME280;39535;52.192;9.886;2023-05-03T12:23:40;103439.72;;;24.62;29.65
13952;BME280;39535;52.192;9.886;2023-05-03T12:26:07;103370.69;;;24.18;29.24
13952;BME280;39535;52.192;9.886;2023-05-03T12:28:34;103347.00;;;23.74;30.30
13952;BME280;39535;52.192;9.886;2023-05-03T12:31:00;103325.38;;;23.54;30.01
13952;BME280;39535;52.192;9.886;2023-05-03T12:33:27;103272.16;;;23.16;30.37
13952;BME280;39535;52.192;9.886;2023-05-03T12:35:53;103231.22;;;23.19;30.07
13952;BME280;39535;52.192;9.886;2023-05-03T12:38:20;103240.00;;;22.90;29.86
13952;BME280;39535;52.192;9.886;2023-05-03T12:40:48;103233.28;;;22.37;30.52
13952;BME280;39535;52.192;9.886;2023-05-03T12:43:15;103236.31;;;21.81;32.84
13952;BME280;39535;52.192;9.886;2023-05-03T12:45:41;103181.63;;;21.68;32.64
13952;BME280;39535;52.192;9.886;2023-05-03T12:48:09;103151.81;;;21.54;32.76
13952;BME280;39535;52.192;9.886;2023-05-03T12:50:35;103131.09;;;21.28;31.90
13952;BME280;39535;52.192;9.886;2023-05-03T12:53:02;103132.53;;;21.00;32.66
13952;BME280;39535;52.192;9.886;2023-05-03T12:55:28;103101.03;;;20.82;32.65
13952;BME280;39535;52.192;9.886;2023-05-03T12:57:59;103088.38;;;20.47;33.58
13952;BME280;39535;52.192;9.886;2023-05-03T13:00:26;103078.84;;;20.36;33.97